sensor_id;sensor_type;location;lat;lon;timestamp;temperature;humidity
41939;DHT22;23057;48.554;14.454;2024-01-16T00:02:21;-3.10;99.90
41939;DHT22;23057;48.554;14.454;2024-01-16T00:04:52;-3.10;99.90
41939;DHT22;23057;48.554;14.454;2024-01-16T00:07:23;-3.20;99.90
41939;DHT22;23057;48.554;14.454;2024-01-16T00:09:54;-3.10;99.90
41939;DHT22;23057;48.554;14.454;2024-01-16T00:12:24;-3.10;99.90
41939;DHT22;23057;48.554;14.454;2024-01-16T00:14:55;-3.10;99.90
41939;DHT22;23057;48.554;14.454;2024-01-16T00:17:26;-3.20;99.90
41939;DHT22;23057;48.554;14.454;2024-01-16T00:19:57;-3.20;99.90
41939;DHT22;23057;48.554;14.454;2024-01-16T00:22:31;-3.20;99.90
41939;DHT22;23057;48.554;14.454;2024-01-16T00:25:01;-3.30;99.90
41939;DHT22;23057;48.554;14.454;2024-01-16T00:27:32;-3.30;99.90
41939;DHT22;23057;48.554;14.454;2024-01-16T00:30:04;-3.20;99.90
41939;DHT22;23057;48.554;14.454;2024-01-16T00:32:36;-3.20;99.90
41939;DHT22;23057;48.554;14.454;2024-01-16T00:35:09;-3.30;99.90
41939;DHT22;23057;48.554;14.454;2024-01-16T00:37:40;-3.20;99.90
41939;DHT22;23057;48.554;14.454;2024-01-16T00:40:11;-3.10;99.90
41939;DHT22;23057;48.554;14.454;2024-01-16T00:42:42;-3.10;99.90
41939;DHT22;23057;48.554;14.454;2024-01-16T00:45:13;-3.10;99.90
41939;DHT22;23057;48.554;14.454;2024-01-16T00:47:44;-3.10;99.90
41939;DHT22;23057;48.554;14.454;2024-01-16T00:50:15;-3.10;99.90
41939;DHT22;23057;48.554;14.454;2024-01-16T00:52:46;-3.10;99.90
41939;DHT22;23057;48.554;14.454;2024-01-16T00:55:16;-3.10;99.90
41939;DHT22;23057;48.554;14.454;2024-01-16T00:57:47;-3.10;99.90
41939;DHT22;23057;48.554;14.454;2024-01-16T01:00:18;-3.10;99.90
41939;DHT22;23057;48.554;14.454;2024-01-16T01:02:49;-3.10;99.90
41939;DHT22;23057;48.554;14.454;2024-01-16T01:05:20;-3.10;99.90
41939;DHT22;23057;48.554;14.454;2024-01-16T01:07:51;-3.10;99.90
41939;DHT22;23057;48.554;14.454;2024-01-16T01:10:21;-3.10;99.90
41939;DHT22;23057;48.554;14.454;2024-01-16T01:12:53;-3.10;99.90
41939;DHT22;23057;48.554;14.454;2024-01-16T01:15:24;-3.00;99.90
41939;DHT22;23057;48.554;14.454;2024-01-16T01:17:55;-3.00;99.90
41939;DHT22;23057;48.554;14.454;2024-01-16T01:20:25;-3.00;99.90
41939;DHT22;23057;48.554;14.454;2024-01-16T01:22:56;-3.10;99.90
41939;DHT22;23057;48.554;14.454;2024-01-16T01:25:28;-3.10;99.90
41939;DHT22;23057;48.554;14.454;2024-01-16T01:27:59;-3.10;99.90
41939;DHT22;23057;48.554;14.454;2024-01-16T01:30:31;-3.10;99.90
41939;DHT22;23057;48.554;14.454;2024-01-16T01:33:03;-3.10;99.90
41939;DHT22;23057;48.554;14.454;2024-01-16T01:35:34;-3.10;99.90
41939;DHT22;23057;48.554;14.454;2024-01-16T01:38:05;-3.10;99.90
41939;DHT22;23057;48.554;14.454;2024-01-16T01:40:38;-3.10;99.90
41939;DHT22;23057;48.554;14.454;2024-01-16T01:43:29;-3.00;99.90
41939;DHT22;23057;48.554;14.454;2024-01-16T01:48:46;-3.00;99.90
41939;DHT22;23057;48.554;14.454;2024-01-16T01:51:19;-3.00;99.90
41939;DHT22;23057;48.554;14.454;2024-01-16T01:53:51;-3.00;99.90
41939;DHT22;23057;48.554;14.454;2024-01-16T01:56:23;-3.00;99.90
41939;DHT22;23057;48.554;14.454;2024-01-16T01:58:56;-3.10;99.90
41939;DHT22;23057;48.554;14.454;2024-01-16T02:01:29;-3.10;99.90
41939;DHT22;23057;48.554;14.454;2024-01-16T02:04:02;-3.10;99.90
41939;DHT22;23057;48.554;14.454;2024-01-16T02:06:34;-3.10;99.90
41939;DHT22;23057;48.554;14.454;2024-01-16T02:09:05;-3.10;99.90
41939;DHT22;23057;48.554;14.454;2024-01-16T02:11:37;-3.10;99.90
41939;DHT22;23057;48.554;14.454;2024-01-16T02:14:08;-3.00;99.90
41939;DHT22;23057;48.554;14.454;2024-01-16T02:16:41;-3.00;99.90
41939;DHT22;23057;48.554;14.454;2024-01-16T02:19:14;-3.00;99.90
41939;DHT22;23057;48.554;14.454;2024-01-16T02:21:49;-3.10;99.90
41939;DHT22;23057;48.554;14.454;2024-01-16T02:24:23;-3.10;99.90
41939;DHT22;23057;48.554;14.454;2024-01-16T02:26:55;-3.10;99.90
41939;DHT22;23057;48.554;14.454;2024-01-16T02:29:27;-3.10;99.90
41939;DHT22;23057;48.554;14.454;2024-01-16T02:31:58;-3.10;99.90
41939;DHT22;23057;48.554;14.454;2024-01-16T02:34:28;-3.10;99.90
41939;DHT22;23057;48.554;14.454;2024-01-16T02:36:59;-3.10;99.90
41939;DHT22;23057;48.554;14.454;2024-01-16T02:39:30;-3.10;99.90
41939;DHT22;23057;48.554;14.454;2024-01-16T02:42:01;-3.10;99.90
41939;DHT22;23057;48.554;14.454;2024-01-16T02:44:32;-3.10;99.90
41939;DHT22;23057;48.554;14.454;2024-01-16T02:47:03;-3.10;99.90
41939;DHT22;23057;48.554;14.454;2024-01-16T02:49:35;-3.20;99.90
41939;DHT22;23057;48.554;14.454;2024-01-16T02:52:07;-3.20;99.90
41939;DHT22;23057;48.554;14.454;2024-01-16T02:54:38;-3.10;99.90
41939;DHT22;23057;48.554;14.454;2024-01-16T02:57:09;-3.20;99.90
41939;DHT22;23057;48.554;14.454;2024-01-16T02:59:46;-3.20;99.90
41939;DHT22;23057;48.554;14.454;2024-01-16T03:02:17;-3.20;99.90
41939;DHT22;23057;48.554;14.454;2024-01-16T03:04:48;-3.20;99.90
41939;DHT22;23057;48.554;14.454;2024-01-16T03:07:19;-3.20;99.90
41939;DHT22;23057;48.554;14.454;2024-01-16T03:09:50;-3.30;99.90
41939;DHT22;23057;48.554;14.454;2024-01-16T03:12:21;-3.30;99.90
41939;DHT22;23057;48.554;14.454;2024-01-16T03:14:52;-3.40;99.90
41939;DHT22;23057;48.554;14.454;2024-01-16T03:17:23;-3.40;99.90
41939;DHT22;23057;48.554;14.454;2024-01-16T03:19:54;-3.40;99.90
41939;DHT22;23057;48.554;14.454;2024-01-16T03:22:25;-3.40;99.90
41939;DHT22;23057;48.554;14.454;2024-01-16T03:24:56;-3.30;99.90
41939;DHT22;23057;48.554;14.454;2024-01-16T03:27:27;-3.30;99.90
41939;DHT22;23057;48.554;14.454;2024-01-16T03:29:58;-3.40;99.90
41939;DHT22;23057;48.554;14.454;2024-01-16T03:32:28;-3.50;99.90
41939;DHT22;23057;48.554;14.454;2024-01-16T03:34:59;-3.50;99.90
41939;DHT22;23057;48.554;14.454;2024-01-16T03:37:30;-3.50;99.90
41939;DHT22;23057;48.554;14.454;2024-01-16T03:40:01;-3.60;99.90
41939;DHT22;23057;48.554;14.454;2024-01-16T03:42:32;-3.60;99.90
41939;DHT22;23057;48.554;14.454;2024-01-16T03:45:03;-3.60;99.90
41939;DHT22;23057;48.554;14.454;2024-01-16T03:47:36;-3.50;99.90
41939;DHT22;23057;48.554;14.454;2024-01-16T03:50:07;-3.60;99.90
41939;DHT22;23057;48.554;14.454;2024-01-16T03:52:39;-3.60;99.90
41939;DHT22;23057;48.554;14.454;2024-01-16T03:55:10;-3.50;99.90
41939;DHT22;23057;48.554;14.454;2024-01-16T03:57:40;-3.60;99.90
41939;DHT22;23057;48.554;14.454;2024-01-16T04:00:12;-3.50;99.90
41939;DHT22;23057;48.554;14.454;2024-01-16T04:02:44;-3.50;99.90
41939;DHT22;23057;48.554;14.454;2024-01-16T04:05:15;-3.60;99.90
41939;DHT22;23057;48.554;14.454;2024-01-16T04:07:46;-3.50;99.90
41939;DHT22;23057;48.554;14.454;2024-01-16T04:10:16;-3.60;99.90
41939;DHT22;23057;48.554;14.454;2024-01-16T04:12:47;-3.60;99.90
41939;DHT22;23057;48.554;14.454;2024-01-16T04:15:18;-3.80;99.90
41939;DHT22;23057;48.554;14.454;2024-01-16T04:17:49;-3.60;99.90
41939;DHT22;23057;48.554;14.454;2024-01-16T04:20:20;-3.60;99.90
41939;DHT22;23057;48.554;14.454;2024-01-16T04:22:51;-3.60;99.90
41939;DHT22;23057;48.554;14.454;2024-01-16T04:25:22;-3.70;99.90
41939;DHT22;23057;48.554;14.454;2024-01-16T04:27:53;-3.70;99.90
41939;DHT22;23057;48.554;14.454;2024-01-16T04:30:24;-3.70;99.90
41939;DHT22;23057;48.554;14.454;2024-01-16T04:32:54;-3.70;99.90
41939;DHT22;23057;48.554;14.454;2024-01-16T04:35:25;-3.70;99.90
41939;DHT22;23057;48.554;14.454;2024-01-16T04:37:56;-3.70;99.90
41939;DHT22;23057;48.554;14.454;2024-01-16T04:40:27;-3.60;99.90
41939;DHT22;23057;48.554;14.454;2024-01-16T04:42:58;-3.60;99.90
41939;DHT22;23057;48.554;14.454;2024-01-16T04:45:29;-3.50;99.90
41939;DHT22;23057;48.554;14.454;2024-01-16T04:47:59;-3.50;99.90
41939;DHT22;23057;48.554;14.454;2024-01-16T04:50:30;-3.50;99.90
41939;DHT22;23057;48.554;14.454;2024-01-16T04:53:04;-3.50;99.90
41939;DHT22;23057;48.554;14.454;2024-01-16T04:55:35;-3.50;99.90
41939;DHT22;23057;48.554;14.454;2024-01-16T04:58:06;-3.50;99.90
41939;DHT22;23057;48.554;14.454;2024-01-16T05:00:37;-3.50;99.90
41939;DHT22;23057;48.554;14.454;2024-01-16T05:03:08;-3.50;99.90
41939;DHT22;23057;48.554;14.454;2024-01-16T05:05:39;-3.60;99.90
41939;DHT22;23057;48.554;14.454;2024-01-16T05:08:10;-3.50;99.90
41939;DHT22;23057;48.554;14.454;2024-01-16T05:10:41;-3.60;99.90
41939;DHT22;23057;48.554;14.454;2024-01-16T05:13:11;-3.60;99.90
41939;DHT22;23057;48.554;14.454;2024-01-16T05:15:42;-3.60;99.90
41939;DHT22;23057;48.554;14.454;2024-01-16T05:18:13;-3.60;99.90
41939;DHT22;23057;48.554;14.454;2024-01-16T05:20:44;-3.60;99.90
41939;DHT22;23057;48.554;14.454;2024-01-16T05:23:15;-3.60;99.90
41939;DHT22;23057;48.554;14.454;2024-01-16T05:25:45;-3.50;99.90
41939;DHT22;23057;48.554;14.454;2024-01-16T05:28:16;-3.60;99.90
41939;DHT22;23057;48.554;14.454;2024-01-16T05:30:47;-3.50;99.90
41939;DHT22;23057;48.554;14.454;2024-01-16T05:33:18;-3.60;99.90
41939;DHT22;23057;48.554;14.454;2024-01-16T05:35:49;-3.60;99.90
41939;DHT22;23057;48.554;14.454;2024-01-16T05:38:19;-3.50;99.90
41939;DHT22;23057;48.554;14.454;2024-01-16T05:40:50;-3.50;99.90
41939;DHT22;23057;48.554;14.454;2024-01-16T05:43:22;-3.40;99.90
41939;DHT22;23057;48.554;14.454;2024-01-16T05:45:53;-3.50;99.90
41939;DHT22;23057;48.554;14.454;2024-01-16T05:48:24;-3.50;99.90
41939;DHT22;23057;48.554;14.454;2024-01-16T05:50:54;-3.50;99.90
41939;DHT22;23057;48.554;14.454;2024-01-16T05:53:25;-3.60;99.90
41939;DHT22;23057;48.554;14.454;2024-01-16T05:55:56;-3.60;99.90
41939;DHT22;23057;48.554;14.454;2024-01-16T05:58:27;-3.70;99.90
41939;DHT22;23057;48.554;14.454;2024-01-16T06:00:58;-3.70;99.90
41939;DHT22;23057;48.554;14.454;2024-01-16T06:03:28;-3.70;99.90
41939;DHT22;23057;48.554;14.454;2024-01-16T06:05:59;-3.60;99.90
41939;DHT22;23057;48.554;14.454;2024-01-16T06:08:30;-3.60;99.90
41939;DHT22;23057;48.554;14.454;2024-01-16T06:11:01;-3.60;99.90
41939;DHT22;23057;48.554;14.454;2024-01-16T06:13:32;-3.60;99.90
41939;DHT22;23057;48.554;14.454;2024-01-16T06:16:05;-3.50;99.90
41939;DHT22;23057;48.554;14.454;2024-01-16T06:18:38;-3.60;99.90
41939;DHT22;23057;48.554;14.454;2024-01-16T06:21:09;-3.50;99.90
41939;DHT22;23057;48.554;14.454;2024-01-16T06:23:42;-3.50;99.90
41939;DHT22;23057;48.554;14.454;2024-01-16T06:26:13;-3.50;99.90
41939;DHT22;23057;48.554;14.454;2024-01-16T06:28:44;-3.50;99.90
41939;DHT22;23057;48.554;14.454;2024-01-16T06:31:16;-3.50;99.90
41939;DHT22;23057;48.554;14.454;2024-01-16T06:33:47;-3.50;99.90
41939;DHT22;23057;48.554;14.454;2024-01-16T06:36:18;-3.50;99.90
41939;DHT22;23057;48.554;14.454;2024-01-16T06:38:49;-3.50;99.90
41939;DHT22;23057;48.554;14.454;2024-01-16T06:41:19;-3.40;99.90
41939;DHT22;23057;48.554;14.454;2024-01-16T06:43:51;-3.40;99.90
41939;DHT22;23057;48.554;14.454;2024-01-16T06:46:22;-3.40;99.90
41939;DHT22;23057;48.554;14.454;2024-01-16T06:48:53;-3.40;99.90
41939;DHT22;23057;48.554;14.454;2024-01-16T06:51:24;-3.40;99.90
41939;DHT22;23057;48.554;14.454;2024-01-16T06:53:54;-3.40;99.90
41939;DHT22;23057;48.554;14.454;2024-01-16T06:56:25;-3.40;99.90
41939;DHT22;23057;48.554;14.454;2024-01-16T06:58:56;-3.40;99.90
41939;DHT22;23057;48.554;14.454;2024-01-16T07:01:27;-3.40;99.90
41939;DHT22;23057;48.554;14.454;2024-01-16T07:03:58;-3.40;99.90
41939;DHT22;23057;48.554;14.454;2024-01-16T07:06:29;-3.40;99.90
41939;DHT22;23057;48.554;14.454;2024-01-16T07:09:00;-3.40;99.90
41939;DHT22;23057;48.554;14.454;2024-01-16T07:11:30;-3.40;99.90
41939;DHT22;23057;48.554;14.454;2024-01-16T07:14:01;-3.40;99.90
41939;DHT22;23057;48.554;14.454;2024-01-16T07:16:33;-3.40;99.90
41939;DHT22;23057;48.554;14.454;2024-01-16T07:19:05;-3.40;99.90
41939;DHT22;23057;48.554;14.454;2024-01-16T07:21:35;-3.30;99.90
41939;DHT22;23057;48.554;14.454;2024-01-16T07:24:06;-3.30;99.90
41939;DHT22;23057;48.554;14.454;2024-01-16T07:26:37;-3.30;99.90
41939;DHT22;23057;48.554;14.454;2024-01-16T07:29:08;-3.30;99.90
41939;DHT22;23057;48.554;14.454;2024-01-16T07:31:39;-3.30;99.90
41939;DHT22;23057;48.554;14.454;2024-01-16T07:34:10;-3.30;99.90
41939;DHT22;23057;48.554;14.454;2024-01-16T07:36:41;-3.30;99.90
41939;DHT22;23057;48.554;14.454;2024-01-16T07:39:12;-3.30;99.90
41939;DHT22;23057;48.554;14.454;2024-01-16T07:41:43;-3.20;99.90
41939;DHT22;23057;48.554;14.454;2024-01-16T07:44:13;-3.20;99.90
41939;DHT22;23057;48.554;14.454;2024-01-16T07:46:44;-3.20;99.90
41939;DHT22;23057;48.554;14.454;2024-01-16T07:49:15;-3.10;99.90
41939;DHT22;23057;48.554;14.454;2024-01-16T07:51:47;-3.10;99.90
41939;DHT22;23057;48.554;14.454;2024-01-16T07:54:17;-3.20;94.70
41939;DHT22;23057;48.554;14.454;2024-01-16T07:56:48;-3.10;94.90
41939;DHT22;23057;48.554;14.454;2024-01-16T07:59:19;-3.00;83.50
41939;DHT22;23057;48.554;14.454;2024-01-16T08:01:50;-3.10;55.10
41939;DHT22;23057;48.554;14.454;2024-01-16T08:04:21;-3.10;16.10
41939;DHT22;23057;48.554;14.454;2024-01-16T08:06:52;-3.00;1.00
41939;DHT22;23057;48.554;14.454;2024-01-16T08:09:23;-3.00;1.00
41939;DHT22;23057;48.554;14.454;2024-01-16T08:11:54;-3.10;1.00
41939;DHT22;23057;48.554;14.454;2024-01-16T08:14:25;-3.00;1.00
41939;DHT22;23057;48.554;14.454;2024-01-16T08:16:56;-3.10;1.00
41939;DHT22;23057;48.554;14.454;2024-01-16T08:19:27;-3.00;1.00
41939;DHT22;23057;48.554;14.454;2024-01-16T08:21:57;-3.00;1.00
41939;DHT22;23057;48.554;14.454;2024-01-16T08:24:28;-2.90;1.00
41939;DHT22;23057;48.554;14.454;2024-01-16T08:26:59;-2.80;99.90
41939;DHT22;23057;48.554;14.454;2024-01-16T08:29:30;-2.80;99.90
41939;DHT22;23057;48.554;14.454;2024-01-16T08:32:01;-2.80;99.90
41939;DHT22;23057;48.554;14.454;2024-01-16T08:34:31;-2.70;99.90
41939;DHT22;23057;48.554;14.454;2024-01-16T08:37:02;-2.70;99.90
41939;DHT22;23057;48.554;14.454;2024-01-16T08:39:35;-2.50;99.90
41939;DHT22;23057;48.554;14.454;2024-01-16T08:42:06;-2.40;99.90
41939;DHT22;23057;48.554;14.454;2024-01-16T08:44:38;-2.40;93.80
41939;DHT22;23057;48.554;14.454;2024-01-16T08:47:12;-2.40;80.20
41939;DHT22;23057;48.554;14.454;2024-01-16T08:49:42;-2.30;26.30
41939;DHT22;23057;48.554;14.454;2024-01-16T08:52:14;-2.30;1.00
41939;DHT22;23057;48.554;14.454;2024-01-16T08:54:46;-2.30;1.00
41939;DHT22;23057;48.554;14.454;2024-01-16T08:57:16;-2.30;99.90
41939;DHT22;23057;48.554;14.454;2024-01-16T08:59:47;-2.30;99.90
41939;DHT22;23057;48.554;14.454;2024-01-16T09:02:18;-2.20;99.90
41939;DHT22;23057;48.554;14.454;2024-01-16T09:04:49;-2.20;99.90
41939;DHT22;23057;48.554;14.454;2024-01-16T09:07:20;-2.30;99.90
41939;DHT22;23057;48.554;14.454;2024-01-16T09:09:51;-2.30;99.90
41939;DHT22;23057;48.554;14.454;2024-01-16T09:12:22;-2.40;99.90
41939;DHT22;23057;48.554;14.454;2024-01-16T09:14:53;-2.40;99.90
41939;DHT22;23057;48.554;14.454;2024-01-16T09:17:24;-2.30;99.90
41939;DHT22;23057;48.554;14.454;2024-01-16T09:19:56;-2.30;99.90
41939;DHT22;23057;48.554;14.454;2024-01-16T09:22:27;-2.40;99.90
41939;DHT22;23057;48.554;14.454;2024-01-16T09:24:58;-2.30;99.90
41939;DHT22;23057;48.554;14.454;2024-01-16T09:27:28;-2.40;99.90
41939;DHT22;23057;48.554;14.454;2024-01-16T09:29:59;-2.30;99.90
41939;DHT22;23057;48.554;14.454;2024-01-16T09:32:30;-2.40;99.90
41939;DHT22;23057;48.554;14.454;2024-01-16T09:35:02;-2.30;99.90
41939;DHT22;23057;48.554;14.454;2024-01-16T09:37:36;-2.20;99.90
41939;DHT22;23057;48.554;14.454;2024-01-16T09:40:09;-1.90;99.90
41939;DHT22;23057;48.554;14.454;2024-01-16T09:42:40;-1.90;9.50
41939;DHT22;23057;48.554;14.454;2024-01-16T09:45:13;-1.90;1.00
41939;DHT22;23057;48.554;14.454;2024-01-16T09:47:52;-1.80;1.00
41939;DHT22;23057;48.554;14.454;2024-01-16T09:50:23;-2.00;1.00
41939;DHT22;23057;48.554;14.454;2024-01-16T09:52:54;-1.90;1.00
41939;DHT22;23057;48.554;14.454;2024-01-16T09:55:25;-1.70;1.00
41939;DHT22;23057;48.554;14.454;2024-01-16T09:57:57;-1.40;1.00
41939;DHT22;23057;48.554;14.454;2024-01-16T10:00:30;-1.40;1.00
41939;DHT22;23057;48.554;14.454;2024-01-16T10:03:03;-1.00;1.00
41939;DHT22;23057;48.554;14.454;2024-01-16T10:05:35;-1.00;99.90
41939;DHT22;23057;48.554;14.454;2024-01-16T10:08:08;-0.90;99.90
41939;DHT22;23057;48.554;14.454;2024-01-16T10:10:39;-0.90;99.90
41939;DHT22;23057;48.554;14.454;2024-01-16T10:13:10;-1.20;99.90
41939;DHT22;23057;48.554;14.454;2024-01-16T10:15:44;-1.30;99.90
41939;DHT22;23057;48.554;14.454;2024-01-16T10:18:25;-1.40;99.90
41939;DHT22;23057;48.554;14.454;2024-01-16T10:21:00;-1.30;99.90
41939;DHT22;23057;48.554;14.454;2024-01-16T10:23:32;-1.20;99.90
41939;DHT22;23057;48.554;14.454;2024-01-16T10:26:10;-1.00;99.90
41939;DHT22;23057;48.554;14.454;2024-01-16T10:28:43;-1.10;99.90
41939;DHT22;23057;48.554;14.454;2024-01-16T10:31:13;-1.20;99.90
41939;DHT22;23057;48.554;14.454;2024-01-16T10:33:44;-0.90;99.90
41939;DHT22;23057;48.554;14.454;2024-01-16T10:36:16;-0.90;99.90
41939;DHT22;23057;48.554;14.454;2024-01-16T10:38:49;-0.80;99.90
41939;DHT22;23057;48.554;14.454;2024-01-16T10:41:27;-0.80;99.90
41939;DHT22;23057;48.554;14.454;2024-01-16T10:44:05;-0.90;99.90
41939;DHT22;23057;48.554;14.454;2024-01-16T10:46:37;-1.10;99.90
41939;DHT22;23057;48.554;14.454;2024-01-16T10:49:08;-1.20;99.90
41939;DHT22;23057;48.554;14.454;2024-01-16T10:51:43;-1.20;99.90
41939;DHT22;23057;48.554;14.454;2024-01-16T10:54:16;-1.10;99.90
41939;DHT22;23057;48.554;14.454;2024-01-16T10:56:49;-1.20;99.90
41939;DHT22;23057;48.554;14.454;2024-01-16T10:59:25;-1.30;99.90
41939;DHT22;23057;48.554;14.454;2024-01-16T11:02:10;-1.20;99.90
41939;DHT22;23057;48.554;14.454;2024-01-16T11:04:48;-0.80;99.90
41939;DHT22;23057;48.554;14.454;2024-01-16T11:07:24;-0.30;99.90
41939;DHT22;23057;48.554;14.454;2024-01-16T11:09:56;0.00;99.90
41939;DHT22;23057;48.554;14.454;2024-01-16T11:12:30;0.50;99.90
41939;DHT22;23057;48.554;14.454;2024-01-16T11:15:04;0.30;99.90
41939;DHT22;23057;48.554;14.454;2024-01-16T11:17:39;0.20;99.90
41939;DHT22;23057;48.554;14.454;2024-01-16T11:20:14;-0.60;99.90
41939;DHT22;23057;48.554;14.454;2024-01-16T11:22:46;-0.70;99.90
41939;DHT22;23057;48.554;14.454;2024-01-16T11:25:19;-0.60;99.90
41939;DHT22;23057;48.554;14.454;2024-01-16T11:27:51;-0.50;99.90
41939;DHT22;23057;48.554;14.454;2024-01-16T11:30:30;-0.30;99.90
41939;DHT22;23057;48.554;14.454;2024-01-16T11:33:04;0.10;99.90
41939;DHT22;23057;48.554;14.454;2024-01-16T11:35:37;0.10;99.90
41939;DHT22;23057;48.554;14.454;2024-01-16T11:38:16;0.50;99.90
41939;DHT22;23057;48.554;14.454;2024-01-16T11:40:49;0.20;34.00
41939;DHT22;23057;48.554;14.454;2024-01-16T11:46:06;0.10;50.20
41939;DHT22;23057;48.554;14.454;2024-01-16T11:48:38;0.20;68.10
41939;DHT22;23057;48.554;14.454;2024-01-16T11:51:23;0.50;62.50
41939;DHT22;23057;48.554;14.454;2024-01-16T11:53:55;0.80;51.90
41939;DHT22;23057;48.554;14.454;2024-01-16T11:56:46;0.70;1.00
41939;DHT22;23057;48.554;14.454;2024-01-16T12:02:51;0.00;59.60
41939;DHT22;23057;48.554;14.454;2024-01-16T12:05:26;0.00;51.60
41939;DHT22;23057;48.554;14.454;2024-01-16T12:07:57;-0.10;67.30
41939;DHT22;23057;48.554;14.454;2024-01-16T12:10:28;0.00;78.80
41939;DHT22;23057;48.554;14.454;2024-01-16T12:12:59;-0.30;50.90
41939;DHT22;23057;48.554;14.454;2024-01-16T12:15:30;-0.50;60.90
41939;DHT22;23057;48.554;14.454;2024-01-16T12:18:02;-0.60;90.60
41939;DHT22;23057;48.554;14.454;2024-01-16T12:20:36;-0.60;99.90
41939;DHT22;23057;48.554;14.454;2024-01-16T12:23:07;-0.50;99.90
41939;DHT22;23057;48.554;14.454;2024-01-16T12:25:39;-0.30;99.90
41939;DHT22;23057;48.554;14.454;2024-01-16T12:28:10;-0.10;81.10
41939;DHT22;23057;48.554;14.454;2024-01-16T12:30:49;-0.30;59.30
41939;DHT22;23057;48.554;14.454;2024-01-16T12:33:22;-0.10;80.10
41939;DHT22;23057;48.554;14.454;2024-01-16T12:36:01;0.10;70.60
41939;DHT22;23057;48.554;14.454;2024-01-16T12:38:33;-0.10;19.90
41939;DHT22;23057;48.554;14.454;2024-01-16T12:41:09;-0.10;40.30
41939;DHT22;23057;48.554;14.454;2024-01-16T12:43:42;-0.30;54.50
41939;DHT22;23057;48.554;14.454;2024-01-16T12:46:13;0.00;56.40
41939;DHT22;23057;48.554;14.454;2024-01-16T12:48:44;0.10;42.90
41939;DHT22;23057;48.554;14.454;2024-01-16T12:51:21;-0.10;1.00
41939;DHT22;23057;48.554;14.454;2024-01-16T12:53:53;0.10;44.50
41939;DHT22;23057;48.554;14.454;2024-01-16T12:56:24;-0.10;13.90
41939;DHT22;23057;48.554;14.454;2024-01-16T12:58:55;-0.50;58.00
41939;DHT22;23057;48.554;14.454;2024-01-16T13:01:27;-0.20;74.80
41939;DHT22;23057;48.554;14.454;2024-01-16T13:04:03;-0.40;51.20
41939;DHT22;23057;48.554;14.454;2024-01-16T13:06:34;-0.40;92.10
41939;DHT22;23057;48.554;14.454;2024-01-16T13:09:06;-0.50;92.30
41939;DHT22;23057;48.554;14.454;2024-01-16T13:11:50;-0.60;96.80
41939;DHT22;23057;48.554;14.454;2024-01-16T13:14:25;-0.70;99.90
41939;DHT22;23057;48.554;14.454;2024-01-16T13:16:56;-0.70;99.90
41939;DHT22;23057;48.554;14.454;2024-01-16T13:19:27;-0.50;99.90
41939;DHT22;23057;48.554;14.454;2024-01-16T13:22:03;-0.30;99.90
41939;DHT22;23057;48.554;14.454;2024-01-16T13:24:34;-0.10;99.90
41939;DHT22;23057;48.554;14.454;2024-01-16T13:27:06;-0.30;79.30
41939;DHT22;23057;48.554;14.454;2024-01-16T13:29:39;-0.30;92.60
41939;DHT22;23057;48.554;14.454;2024-01-16T13:32:11;-0.40;92.40
41939;DHT22;23057;48.554;14.454;2024-01-16T13:34:42;-0.40;99.90
41939;DHT22;23057;48.554;14.454;2024-01-16T13:37:20;-0.30;99.90
41939;DHT22;23057;48.554;14.454;2024-01-16T13:39:53;-0.10;99.90
41939;DHT22;23057;48.554;14.454;2024-01-16T13:42:24;0.00;99.90
41939;DHT22;23057;48.554;14.454;2024-01-16T13:44:54;0.00;90.20
41939;DHT22;23057;48.554;14.454;2024-01-16T13:47:25;0.00;91.50
41939;DHT22;23057;48.554;14.454;2024-01-16T13:49:56;0.00;79.90
41939;DHT22;23057;48.554;14.454;2024-01-16T13:52:27;0.00;81.20
41939;DHT22;23057;48.554;14.454;2024-01-16T13:54:58;-0.10;76.10
41939;DHT22;23057;48.554;14.454;2024-01-16T13:57:31;-0.10;65.00
41939;DHT22;23057;48.554;14.454;2024-01-16T14:00:13;-0.30;78.90
41939;DHT22;23057;48.554;14.454;2024-01-16T14:02:47;-0.40;90.30
41939;DHT22;23057;48.554;14.454;2024-01-16T14:05:19;-0.50;99.90
41939;DHT22;23057;48.554;14.454;2024-01-16T14:07:51;-0.70;92.30
41939;DHT22;23057;48.554;14.454;2024-01-16T14:10:23;-0.90;99.90
41939;DHT22;23057;48.554;14.454;2024-01-16T14:12:55;-0.90;99.90
41939;DHT22;23057;48.554;14.454;2024-01-16T14:15:26;-1.00;99.90
41939;DHT22;23057;48.554;14.454;2024-01-16T14:17:57;-1.10;99.90
41939;DHT22;23057;48.554;14.454;2024-01-16T14:20:28;-1.10;99.90
41939;DHT22;23057;48.554;14.454;2024-01-16T14:22:59;-0.90;99.90
41939;DHT22;23057;48.554;14.454;2024-01-16T14:25:30;-0.90;99.90
41939;DHT22;23057;48.554;14.454;2024-01-16T14:28:03;-1.00;99.90
41939;DHT22;23057;48.554;14.454;2024-01-16T14:30:35;-1.00;99.90
41939;DHT22;23057;48.554;14.454;2024-01-16T14:33:06;-1.00;99.90
41939;DHT22;23057;48.554;14.454;2024-01-16T14:35:38;-1.10;99.90
41939;DHT22;23057;48.554;14.454;2024-01-16T14:38:09;-1.10;99.90
41939;DHT22;23057;48.554;14.454;2024-01-16T14:40:40;-1.20;99.90
41939;DHT22;23057;48.554;14.454;2024-01-16T14:43:11;-1.20;99.90
41939;DHT22;23057;48.554;14.454;2024-01-16T14:45:42;-1.40;99.90
41939;DHT22;23057;48.554;14.454;2024-01-16T14:48:15;-1.50;99.90
41939;DHT22;23057;48.554;14.454;2024-01-16T14:50:47;-1.60;99.90
41939;DHT22;23057;48.554;14.454;2024-01-16T14:53:19;-1.70;99.90
41939;DHT22;23057;48.554;14.454;2024-01-16T14:55:50;-1.70;99.90
41939;DHT22;23057;48.554;14.454;2024-01-16T14:58:22;-1.80;99.90
41939;DHT22;23057;48.554;14.454;2024-01-16T15:00:53;-1.80;99.90
41939;DHT22;23057;48.554;14.454;2024-01-16T15:03:26;-1.80;99.90
41939;DHT22;23057;48.554;14.454;2024-01-16T15:05:56;-1.90;99.90
41939;DHT22;23057;48.554;14.454;2024-01-16T15:08:27;-2.10;99.90
41939;DHT22;23057;48.554;14.454;2024-01-16T15:11:01;-2.10;99.90
41939;DHT22;23057;48.554;14.454;2024-01-16T15:13:32;-2.20;99.90
41939;DHT22;23057;48.554;14.454;2024-01-16T15:16:04;-2.10;99.90
41939;DHT22;23057;48.554;14.454;2024-01-16T15:18:34;-2.10;99.90
41939;DHT22;23057;48.554;14.454;2024-01-16T15:21:05;-2.10;99.90
41939;DHT22;23057;48.554;14.454;2024-01-16T15:23:36;-2.10;99.90
41939;DHT22;23057;48.554;14.454;2024-01-16T15:26:07;-2.20;99.90
41939;DHT22;23057;48.554;14.454;2024-01-16T15:28:38;-2.20;99.90
41939;DHT22;23057;48.554;14.454;2024-01-16T15:31:10;-2.20;99.90
41939;DHT22;23057;48.554;14.454;2024-01-16T15:33:43;-2.20;99.90
41939;DHT22;23057;48.554;14.454;2024-01-16T15:36:14;-2.30;1.00
41939;DHT22;23057;48.554;14.454;2024-01-16T15:38:45;-2.30;1.00
41939;DHT22;23057;48.554;14.454;2024-01-16T15:41:16;-2.30;1.00
41939;DHT22;23057;48.554;14.454;2024-01-16T15:43:47;-2.40;1.00
41939;DHT22;23057;48.554;14.454;2024-01-16T15:46:18;-2.40;1.00
41939;DHT22;23057;48.554;14.454;2024-01-16T15:48:49;-2.40;1.00
41939;DHT22;23057;48.554;14.454;2024-01-16T15:51:21;-2.40;1.00
41939;DHT22;23057;48.554;14.454;2024-01-16T15:53:52;-2.40;1.00
41939;DHT22;23057;48.554;14.454;2024-01-16T15:56:23;-2.50;1.00